sensor_id;sensor_type;location;lat;lon;timestamp;P1;durP1;ratioP1;P2;durP2;ratioP2
7398;SDS011;3740;50.700;7.184;2022-12-07T00:01:09;14.70;;;13.30;;
7398;SDS011;3740;50.700;7.184;2022-12-07T00:03:39;15.00;;;13.50;;
7398;SDS011;3740;50.700;7.184;2022-12-07T00:06:07;15.20;;;13.60;;
7398;SDS011;3740;50.700;7.184;2022-12-07T00:08:35;15.83;;;14.27;;
7398;SDS011;3740;50.700;7.184;2022-12-07T00:11:05;16.50;;;14.87;;
7398;SDS011;3740;50.700;7.184;2022-12-07T00:13:33;16.60;;;15.03;;
7398;SDS011;3740;50.700;7.184;2022-12-07T00:16:00;17.50;;;15.77;;
7398;SDS011;3740;50.700;7.184;2022-12-07T00:18:31;17.33;;;15.53;;
7398;SDS011;3740;50.700;7.184;2022-12-07T00:21:00;17.43;;;15.63;;
7398;SDS011;3740;50.700;7.184;2022-12-07T00:23:28;17.10;;;15.30;;
7398;SDS011;3740;50.700;7.184;2022-12-07T00:25:54;18.20;;;16.30;;
7398;SDS011;3740;50.700;7.184;2022-12-07T00:28:20;17.93;;;15.93;;
7398;SDS011;3740;50.700;7.184;2022-12-07T00:30:45;18.30;;;16.40;;
7398;SDS011;3740;50.700;7.184;2022-12-07T00:33:11;17.90;;;16.03;;
7398;SDS011;3740;50.700;7.184;2022-12-07T00:35:36;18.93;;;16.93;;
7398;SDS011;3740;50.700;7.184;2022-12-07T00:38:02;18.37;;;16.50;;
7398;SDS011;3740;50.700;7.184;2022-12-07T00:40:28;18.23;;;16.33;;
7398;SDS011;3740;50.700;7.184;2022-12-07T00:42:53;17.53;;;15.83;;
7398;SDS011;3740;50.700;7.184;2022-12-07T00:45:19;17.80;;;16.10;;
7398;SDS011;3740;50.700;7.184;2022-12-07T00:47:44;18.33;;;16.43;;
7398;SDS011;3740;50.700;7.184;2022-12-07T00:50:10;18.50;;;16.60;;
7398;SDS011;3740;50.700;7.184;2022-12-07T00:52:35;18.30;;;16.53;;
7398;SDS011;3740;50.700;7.184;2022-12-07T00:55:01;19.43;;;17.53;;
7398;SDS011;3740;50.700;7.184;2022-12-07T00:57:26;18.97;;;17.00;;
7398;SDS011;3740;50.700;7.184;2022-12-07T00:59:52;20.00;;;17.03;;
7398;SDS011;3740;50.700;7.184;2022-12-07T01:02:20;19.70;;;17.70;;
7398;SDS011;3740;50.700;7.184;2022-12-07T01:04:46;19.20;;;17.20;;
7398;SDS011;3740;50.700;7.184;2022-12-07T01:07:12;20.23;;;18.20;;
7398;SDS011;3740;50.700;7.184;2022-12-07T01:09:37;19.67;;;17.07;;
7398;SDS011;3740;50.700;7.184;2022-12-07T01:12:03;20.13;;;18.13;;
7398;SDS011;3740;50.700;7.184;2022-12-07T01:14:28;21.20;;;18.87;;
7398;SDS011;3740;50.700;7.184;2022-12-07T01:16:54;19.93;;;17.93;;
7398;SDS011;3740;50.700;7.184;2022-12-07T01:19:19;19.40;;;17.40;;
7398;SDS011;3740;50.700;7.184;2022-12-07T01:21:45;18.90;;;17.03;;
7398;SDS011;3740;50.700;7.184;2022-12-07T01:24:10;19.90;;;17.80;;
7398;SDS011;3740;50.700;7.184;2022-12-07T01:26:36;18.47;;;16.63;;
7398;SDS011;3740;50.700;7.184;2022-12-07T01:29:02;19.33;;;17.43;;
7398;SDS011;3740;50.700;7.184;2022-12-07T01:31:28;19.57;;;17.67;;
7398;SDS011;3740;50.700;7.184;2022-12-07T01:33:55;19.33;;;17.30;;
7398;SDS011;3740;50.700;7.184;2022-12-07T01:36:26;21.23;;;19.13;;
7398;SDS011;3740;50.700;7.184;2022-12-07T01:38:55;20.30;;;18.30;;
7398;SDS011;3740;50.700;7.184;2022-12-07T01:41:24;21.43;;;19.23;;
7398;SDS011;3740;50.700;7.184;2022-12-07T01:46:38;22.20;;;19.90;;
7398;SDS011;3740;50.700;7.184;2022-12-07T01:49:08;22.43;;;19.93;;
7398;SDS011;3740;50.700;7.184;2022-12-07T01:51:39;21.63;;;19.53;;
7398;SDS011;3740;50.700;7.184;2022-12-07T01:54:07;22.17;;;20.00;;
7398;SDS011;3740;50.700;7.184;2022-12-07T01:56:34;24.10;;;21.60;;
7398;SDS011;3740;50.700;7.184;2022-12-07T01:59:02;24.00;;;21.40;;
7398;SDS011;3740;50.700;7.184;2022-12-07T02:01:28;24.23;;;21.67;;
7398;SDS011;3740;50.700;7.184;2022-12-07T02:03:54;23.10;;;20.80;;
7398;SDS011;3740;50.700;7.184;2022-12-07T02:06:20;24.87;;;22.30;;
7398;SDS011;3740;50.700;7.184;2022-12-07T02:08:49;22.77;;;20.40;;
7398;SDS011;3740;50.700;7.184;2022-12-07T02:11:15;22.40;;;20.20;;
7398;SDS011;3740;50.700;7.184;2022-12-07T02:13:42;22.43;;;20.23;;
7398;SDS011;3740;50.700;7.184;2022-12-07T02:21:46;25.30;;;22.10;;
7398;SDS011;3740;50.700;7.184;2022-12-07T02:27:37;27.27;;;24.37;;
7398;SDS011;3740;50.700;7.184;2022-12-07T02:30:22;24.77;;;22.27;;
7398;SDS011;3740;50.700;7.184;2022-12-07T02:33:00;25.53;;;22.73;;
7398;SDS011;3740;50.700;7.184;2022-12-07T02:35:32;26.20;;;23.40;;
7398;SDS011;3740;50.700;7.184;2022-12-07T02:43:28;27.10;;;24.37;;
7398;SDS011;3740;50.700;7.184;2022-12-07T02:46:26;27.07;;;24.20;;
7398;SDS011;3740;50.700;7.184;2022-12-07T02:49:02;27.97;;;23.73;;
7398;SDS011;3740;50.700;7.184;2022-12-07T02:51:32;27.03;;;24.23;;
7398;SDS011;3740;50.700;7.184;2022-12-07T02:53:58;27.37;;;24.63;;
7398;SDS011;3740;50.700;7.184;2022-12-07T03:08:06;29.87;;;26.77;;
7398;SDS011;3740;50.700;7.184;2022-12-07T03:13:41;30.97;;;27.70;;
7398;SDS011;3740;50.700;7.184;2022-12-07T03:16:22;30.37;;;27.27;;
7398;SDS011;3740;50.700;7.184;2022-12-07T03:19:15;30.63;;;27.47;;
7398;SDS011;3740;50.700;7.184;2022-12-07T03:21:44;32.30;;;29.00;;
7398;SDS011;3740;50.700;7.184;2022-12-07T03:24:14;30.43;;;27.23;;
7398;SDS011;3740;50.700;7.184;2022-12-07T03:26:51;32.53;;;28.87;;
7398;SDS011;3740;50.700;7.184;2022-12-07T03:29:28;31.27;;;28.03;;
7398;SDS011;3740;50.700;7.184;2022-12-07T03:32:04;30.40;;;27.43;;
7398;SDS011;3740;50.700;7.184;2022-12-07T03:34:34;30.30;;;26.60;;
7398;SDS011;3740;50.700;7.184;2022-12-07T03:37:09;28.50;;;25.67;;
7398;SDS011;3740;50.700;7.184;2022-12-07T03:39:57;29.03;;;26.00;;
7398;SDS011;3740;50.700;7.184;2022-12-07T03:42:40;28.67;;;25.77;;
7398;SDS011;3740;50.700;7.184;2022-12-07T03:45:07;29.97;;;25.50;;
7398;SDS011;3740;50.700;7.184;2022-12-07T03:47:35;28.33;;;25.33;;
7398;SDS011;3740;50.700;7.184;2022-12-07T03:50:05;29.97;;;26.87;;
7398;SDS011;3740;50.700;7.184;2022-12-07T03:52:42;31.43;;;28.23;;
7398;SDS011;3740;50.700;7.184;2022-12-07T03:55:20;29.90;;;26.73;;
7398;SDS011;3740;50.700;7.184;2022-12-07T03:57:52;30.77;;;27.57;;
7398;SDS011;3740;50.700;7.184;2022-12-07T04:00:22;30.33;;;27.43;;
7398;SDS011;3740;50.700;7.184;2022-12-07T04:02:47;30.70;;;27.70;;
7398;SDS011;3740;50.700;7.184;2022-12-07T04:05:17;32.20;;;29.00;;
7398;SDS011;3740;50.700;7.184;2022-12-07T04:07:42;31.50;;;28.30;;
7398;SDS011;3740;50.700;7.184;2022-12-07T04:10:08;31.77;;;28.47;;
7398;SDS011;3740;50.700;7.184;2022-12-07T04:12:34;31.10;;;27.93;;
7398;SDS011;3740;50.700;7.184;2022-12-07T04:15:00;30.00;;;26.83;;
7398;SDS011;3740;50.700;7.184;2022-12-07T04:17:25;29.60;;;26.50;;
7398;SDS011;3740;50.700;7.184;2022-12-07T04:19:51;29.07;;;26.13;;
7398;SDS011;3740;50.700;7.184;2022-12-07T04:22:16;28.40;;;25.63;;
7398;SDS011;3740;50.700;7.184;2022-12-07T04:24:42;30.67;;;26.70;;
7398;SDS011;3740;50.700;7.184;2022-12-07T04:27:07;30.00;;;26.93;;
7398;SDS011;3740;50.700;7.184;2022-12-07T04:29:33;31.80;;;28.50;;
7398;SDS011;3740;50.700;7.184;2022-12-07T04:31:58;34.50;;;30.60;;
7398;SDS011;3740;50.700;7.184;2022-12-07T04:34:24;35.50;;;32.00;;
7398;SDS011;3740;50.700;7.184;2022-12-07T04:36:49;32.83;;;29.40;;
7398;SDS011;3740;50.700;7.184;2022-12-07T04:39:19;34.23;;;30.80;;
7398;SDS011;3740;50.700;7.184;2022-12-07T04:41:49;33.67;;;28.57;;
7398;SDS011;3740;50.700;7.184;2022-12-07T04:44:15;31.93;;;28.60;;
7398;SDS011;3740;50.700;7.184;2022-12-07T04:46:42;33.77;;;30.20;;
7398;SDS011;3740;50.700;7.184;2022-12-07T04:49:08;33.40;;;29.80;;
7398;SDS011;3740;50.700;7.184;2022-12-07T04:51:34;32.93;;;29.33;;
7398;SDS011;3740;50.700;7.184;2022-12-07T04:54:00;32.20;;;28.10;;
7398;SDS011;3740;50.700;7.184;2022-12-07T04:56:25;32.50;;;29.13;;
7398;SDS011;3740;50.700;7.184;2022-12-07T04:58:53;31.27;;;27.90;;
7398;SDS011;3740;50.700;7.184;2022-12-07T05:01:19;33.50;;;29.73;;
7398;SDS011;3740;50.700;7.184;2022-12-07T05:03:46;32.20;;;28.87;;
7398;SDS011;3740;50.700;7.184;2022-12-07T05:06:11;35.67;;;31.77;;
7398;SDS011;3740;50.700;7.184;2022-12-07T05:08:38;31.87;;;27.23;;
7398;SDS011;3740;50.700;7.184;2022-12-07T05:11:04;31.93;;;28.57;;
7398;SDS011;3740;50.700;7.184;2022-12-07T05:13:30;29.47;;;26.27;;
7398;SDS011;3740;50.700;7.184;2022-12-07T05:15:56;31.33;;;26.87;;
7398;SDS011;3740;50.700;7.184;2022-12-07T05:18:22;30.30;;;27.30;;
7398;SDS011;3740;50.700;7.184;2022-12-07T05:20:48;32.57;;;27.60;;
7398;SDS011;3740;50.700;7.184;2022-12-07T05:23:14;30.90;;;27.60;;
7398;SDS011;3740;50.700;7.184;2022-12-07T05:25:39;29.77;;;26.73;;
7398;SDS011;3740;50.700;7.184;2022-12-07T05:28:05;31.40;;;27.10;;
7398;SDS011;3740;50.700;7.184;2022-12-07T05:30:31;31.63;;;28.40;;
7398;SDS011;3740;50.700;7.184;2022-12-07T05:32:57;31.13;;;27.73;;
7398;SDS011;3740;50.700;7.184;2022-12-07T05:35:23;33.97;;;28.70;;
7398;SDS011;3740;50.700;7.184;2022-12-07T05:37:49;31.53;;;28.13;;
7398;SDS011;3740;50.700;7.184;2022-12-07T05:40:14;30.57;;;27.33;;
7398;SDS011;3740;50.700;7.184;2022-12-07T05:42:41;29.77;;;26.57;;
7398;SDS011;3740;50.700;7.184;2022-12-07T05:45:07;31.37;;;27.47;;
7398;SDS011;3740;50.700;7.184;2022-12-07T05:47:33;31.40;;;27.23;;
7398;SDS011;3740;50.700;7.184;2022-12-07T05:49:59;33.33;;;28.30;;
7398;SDS011;3740;50.700;7.184;2022-12-07T05:52:24;27.60;;;24.70;;
7398;SDS011;3740;50.700;7.184;2022-12-07T05:54:50;31.47;;;28.17;;
7398;SDS011;3740;50.700;7.184;2022-12-07T05:57:16;29.20;;;25.10;;
7398;SDS011;3740;50.700;7.184;2022-12-07T05:59:42;28.37;;;25.00;;
7398;SDS011;3740;50.700;7.184;2022-12-07T06:02:09;26.73;;;23.80;;
7398;SDS011;3740;50.700;7.184;2022-12-07T06:04:37;27.43;;;24.53;;
7398;SDS011;3740;50.700;7.184;2022-12-07T06:07:05;30.90;;;25.37;;
7398;SDS011;3740;50.700;7.184;2022-12-07T06:09:32;30.30;;;27.10;;
7398;SDS011;3740;50.700;7.184;2022-12-07T06:11:58;28.57;;;25.50;;
7398;SDS011;3740;50.700;7.184;2022-12-07T06:14:43;29.10;;;25.43;;
7398;SDS011;3740;50.700;7.184;2022-12-07T06:17:09;30.07;;;25.07;;
7398;SDS011;3740;50.700;7.184;2022-12-07T06:19:35;32.43;;;25.03;;
7398;SDS011;3740;50.700;7.184;2022-12-07T06:22:01;28.37;;;25.10;;
7398;SDS011;3740;50.700;7.184;2022-12-07T06:24:29;27.37;;;24.43;;
7398;SDS011;3740;50.700;7.184;2022-12-07T06:26:55;28.67;;;25.57;;
7398;SDS011;3740;50.700;7.184;2022-12-07T06:29:21;27.37;;;24.53;;
7398;SDS011;3740;50.700;7.184;2022-12-07T06:31:47;28.27;;;23.37;;
7398;SDS011;3740;50.700;7.184;2022-12-07T06:34:14;28.10;;;24.13;;
7398;SDS011;3740;50.700;7.184;2022-12-07T06:36:41;27.23;;;24.23;;
7398;SDS011;3740;50.700;7.184;2022-12-07T06:39:07;26.83;;;23.03;;
7398;SDS011;3740;50.700;7.184;2022-12-07T06:41:34;26.17;;;22.93;;
7398;SDS011;3740;50.700;7.184;2022-12-07T06:44:03;29.13;;;24.07;;
7398;SDS011;3740;50.700;7.184;2022-12-07T06:46:29;26.40;;;23.60;;
7398;SDS011;3740;50.700;7.184;2022-12-07T06:48:55;25.47;;;22.83;;
7398;SDS011;3740;50.700;7.184;2022-12-07T06:51:20;26.70;;;23.10;;
7398;SDS011;3740;50.700;7.184;2022-12-07T06:53:46;37.07;;;30.30;;
7398;SDS011;3740;50.700;7.184;2022-12-07T06:56:12;25.90;;;22.37;;
7398;SDS011;3740;50.700;7.184;2022-12-07T06:58:38;26.43;;;23.40;;
7398;SDS011;3740;50.700;7.184;2022-12-07T07:01:13;26.17;;;23.40;;
7398;SDS011;3740;50.700;7.184;2022-12-07T07:03:41;26.77;;;23.07;;
7398;SDS011;3740;50.700;7.184;2022-12-07T07:06:07;27.20;;;23.57;;
7398;SDS011;3740;50.700;7.184;2022-12-07T07:08:33;29.27;;;25.80;;
7398;SDS011;3740;50.700;7.184;2022-12-07T07:10:59;25.57;;;22.87;;
7398;SDS011;3740;50.700;7.184;2022-12-07T07:13:25;29.40;;;24.20;;
7398;SDS011;3740;50.700;7.184;2022-12-07T07:15:51;27.30;;;22.20;;
7398;SDS011;3740;50.700;7.184;2022-12-07T07:18:17;26.87;;;23.43;;
7398;SDS011;3740;50.700;7.184;2022-12-07T07:20:42;26.33;;;23.53;;
7398;SDS011;3740;50.700;7.184;2022-12-07T07:23:08;25.90;;;23.10;;
7398;SDS011;3740;50.700;7.184;2022-12-07T07:25:33;28.57;;;22.93;;
7398;SDS011;3740;50.700;7.184;2022-12-07T07:27:59;25.23;;;22.50;;
7398;SDS011;3740;50.700;7.184;2022-12-07T07:30:25;26.20;;;21.83;;
7398;SDS011;3740;50.700;7.184;2022-12-07T07:32:50;23.03;;;20.70;;
7398;SDS011;3740;50.700;7.184;2022-12-07T07:35:16;21.57;;;19.20;;
7398;SDS011;3740;50.700;7.184;2022-12-07T07:37:42;24.57;;;20.17;;
7398;SDS011;3740;50.700;7.184;2022-12-07T07:40:08;22.47;;;20.13;;
7398;SDS011;3740;50.700;7.184;2022-12-07T07:42:34;19.93;;;17.77;;
7398;SDS011;3740;50.700;7.184;2022-12-07T07:45:00;25.23;;;22.60;;
7398;SDS011;3740;50.700;7.184;2022-12-07T07:47:25;28.83;;;26.03;;
7398;SDS011;3740;50.700;7.184;2022-12-07T07:49:51;21.50;;;18.97;;
7398;SDS011;3740;50.700;7.184;2022-12-07T07:52:16;29.33;;;26.40;;
7398;SDS011;3740;50.700;7.184;2022-12-07T07:54:42;35.47;;;32.37;;
7398;SDS011;3740;50.700;7.184;2022-12-07T07:57:07;25.00;;;22.60;;
7398;SDS011;3740;50.700;7.184;2022-12-07T07:59:33;19.37;;;17.20;;
7398;SDS011;3740;50.700;7.184;2022-12-07T08:01:58;19.27;;;17.00;;
7398;SDS011;3740;50.700;7.184;2022-12-07T08:04:24;20.60;;;16.57;;
7398;SDS011;3740;50.700;7.184;2022-12-07T08:06:50;22.80;;;20.37;;
7398;SDS011;3740;50.700;7.184;2022-12-07T08:09:15;21.10;;;18.07;;
7398;SDS011;3740;50.700;7.184;2022-12-07T08:11:41;18.03;;;16.13;;
7398;SDS011;3740;50.700;7.184;2022-12-07T08:14:06;18.33;;;16.43;;
7398;SDS011;3740;50.700;7.184;2022-12-07T08:16:32;20.40;;;17.30;;
7398;SDS011;3740;50.700;7.184;2022-12-07T08:18:57;20.47;;;16.63;;
7398;SDS011;3740;50.700;7.184;2022-12-07T08:21:23;18.77;;;16.57;;
7398;SDS011;3740;50.700;7.184;2022-12-07T08:23:48;20.07;;;17.97;;
7398;SDS011;3740;50.700;7.184;2022-12-07T08:26:15;20.60;;;17.90;;
7398;SDS011;3740;50.700;7.184;2022-12-07T08:28:41;23.40;;;18.50;;
7398;SDS011;3740;50.700;7.184;2022-12-07T08:31:10;20.63;;;17.37;;
7398;SDS011;3740;50.700;7.184;2022-12-07T08:33:38;21.80;;;18.50;;
7398;SDS011;3740;50.700;7.184;2022-12-07T08:36:09;23.00;;;18.87;;
7398;SDS011;3740;50.700;7.184;2022-12-07T08:38:37;22.07;;;19.83;;
7398;SDS011;3740;50.700;7.184;2022-12-07T08:41:03;20.60;;;18.37;;
7398;SDS011;3740;50.700;7.184;2022-12-07T08:43:30;23.37;;;19.37;;
7398;SDS011;3740;50.700;7.184;2022-12-07T08:48:24;21.73;;;18.47;;
7398;SDS011;3740;50.700;7.184;2022-12-07T08:50:50;19.17;;;17.17;;
7398;SDS011;3740;50.700;7.184;2022-12-07T08:53:16;21.77;;;18.43;;
7398;SDS011;3740;50.700;7.184;2022-12-07T08:55:43;20.10;;;17.00;;
7398;SDS011;3740;50.700;7.184;2022-12-07T08:58:10;20.17;;;16.87;;
7398;SDS011;3740;50.700;7.184;2022-12-07T09:00:36;20.60;;;18.47;;
7398;SDS011;3740;50.700;7.184;2022-12-07T09:03:01;20.77;;;17.47;;
7398;SDS011;3740;50.700;7.184;2022-12-07T09:05:27;27.10;;;24.20;;
7398;SDS011;3740;50.700;7.184;2022-12-07T09:07:54;27.60;;;23.30;;
7398;SDS011;3740;50.700;7.184;2022-12-07T09:10:24;23.97;;;21.43;;
7398;SDS011;3740;50.700;7.184;2022-12-07T09:12:49;23.07;;;20.67;;
7398;SDS011;3740;50.700;7.184;2022-12-07T09:15:15;20.40;;;16.30;;
7398;SDS011;3740;50.700;7.184;2022-12-07T09:17:40;32.50;;;29.03;;
7398;SDS011;3740;50.700;7.184;2022-12-07T09:20:06;34.60;;;29.70;;
7398;SDS011;3740;50.700;7.184;2022-12-07T09:22:32;44.03;;;38.43;;
7398;SDS011;3740;50.700;7.184;2022-12-07T09:24:58;21.70;;;16.90;;
7398;SDS011;3740;50.700;7.184;2022-12-07T09:27:24;17.30;;;15.43;;
7398;SDS011;3740;50.700;7.184;2022-12-07T09:29:50;19.23;;;15.93;;
7398;SDS011;3740;50.700;7.184;2022-12-07T09:32:15;16.90;;;15.10;;
7398;SDS011;3740;50.700;7.184;2022-12-07T09:34:41;16.23;;;14.47;;
7398;SDS011;3740;50.700;7.184;2022-12-07T09:37:06;19.07;;;15.43;;
7398;SDS011;3740;50.700;7.184;2022-12-07T09:39:32;17.70;;;14.83;;
7398;SDS011;3740;50.700;7.184;2022-12-07T09:41:58;17.10;;;14.50;;
7398;SDS011;3740;50.700;7.184;2022-12-07T09:44:27;17.37;;;13.73;;
7398;SDS011;3740;50.700;7.184;2022-12-07T09:46:53;16.47;;;14.03;;
7398;SDS011;3740;50.700;7.184;2022-12-07T09:49:20;16.50;;;14.43;;
7398;SDS011;3740;50.700;7.184;2022-12-07T09:51:55;17.77;;;14.27;;
7398;SDS011;3740;50.700;7.184;2022-12-07T09:54:27;18.90;;;15.47;;
7398;SDS011;3740;50.700;7.184;2022-12-07T09:56:54;20.20;;;15.13;;
7398;SDS011;3740;50.700;7.184;2022-12-07T09:59:19;17.57;;;15.70;;
7398;SDS011;3740;50.700;7.184;2022-12-07T10:01:49;18.67;;;15.23;;
7398;SDS011;3740;50.700;7.184;2022-12-07T10:04:18;16.40;;;13.80;;
7398;SDS011;3740;50.700;7.184;2022-12-07T10:06:46;16.40;;;13.93;;
7398;SDS011;3740;50.700;7.184;2022-12-07T10:09:13;15.63;;;12.90;;
7398;SDS011;3740;50.700;7.184;2022-12-07T10:14:30;15.67;;;12.47;;
7398;SDS011;3740;50.700;7.184;2022-12-07T10:16:58;13.80;;;12.10;;
7398;SDS011;3740;50.700;7.184;2022-12-07T10:22:10;13.13;;;11.80;;
7398;SDS011;3740;50.700;7.184;2022-12-07T10:24:42;13.57;;;12.18;;
7398;SDS011;3740;50.700;7.184;2022-12-07T10:27:28;13.07;;;10.93;;
7398;SDS011;3740;50.700;7.184;2022-12-07T10:29:55;13.30;;;11.87;;
7398;SDS011;3740;50.700;7.184;2022-12-07T10:35:18;13.07;;;11.77;;
7398;SDS011;3740;50.700;7.184;2022-12-07T10:37:46;12.67;;;10.77;;
7398;SDS011;3740;50.700;7.184;2022-12-07T10:40:34;13.50;;;11.10;;
7398;SDS011;3740;50.700;7.184;2022-12-07T10:45:30;14.77;;;11.40;;
7398;SDS011;3740;50.700;7.184;2022-12-07T10:53:53;10.07;;;9.07;;
7398;SDS011;3740;50.700;7.184;2022-12-07T10:56:44;15.73;;;10.30;;
7398;SDS011;3740;50.700;7.184;2022-12-07T11:01:45;12.20;;;9.80;;
7398;SDS011;3740;50.700;7.184;2022-12-07T11:07:34;12.47;;;11.00;;
7398;SDS011;3740;50.700;7.184;2022-12-07T11:10:10;15.47;;;11.83;;
7398;SDS011;3740;50.700;7.184;2022-12-07T11:12:48;14.00;;;10.80;;
7398;SDS011;3740;50.700;7.184;2022-12-07T11:15:24;12.03;;;9.60;;
7398;SDS011;3740;50.700;7.184;2022-12-07T11:18:11;11.77;;;9.67;;
7398;SDS011;3740;50.700;7.184;2022-12-07T11:20:44;10.33;;;9.23;;
7398;SDS011;3740;50.700;7.184;2022-12-07T11:29:38;11.63;;;8.80;;
7398;SDS011;3740;50.700;7.184;2022-12-07T11:32:22;12.53;;;8.40;;
7398;SDS011;3740;50.700;7.184;2022-12-07T11:38:18;12.27;;;7.67;;
7398;SDS011;3740;50.700;7.184;2022-12-07T11:40:48;11.73;;;8.40;;
7398;SDS011;3740;50.700;7.184;2022-12-07T11:46:08;13.13;;;8.13;;
7398;SDS011;3740;50.700;7.184;2022-12-07T11:48:40;10.23;;;6.93;;
7398;SDS011;3740;50.700;7.184;2022-12-07T11:51:10;8.03;;;5.90;;
7398;SDS011;3740;50.700;7.184;2022-12-07T11:53:38;8.27;;;6.17;;
7398;SDS011;3740;50.700;7.184;2022-12-07T11:56:19;8.63;;;5.90;;
7398;SDS011;3740;50.700;7.184;2022-12-07T12:03:53;10.30;;;6.70;;
7398;SDS011;3740;50.700;7.184;2022-12-07T12:06:48;10.37;;;5.80;;
7398;SDS011;3740;50.700;7.184;2022-12-07T12:09:18;10.93;;;6.00;;
7398;SDS011;3740;50.700;7.184;2022-12-07T12:22:56;9.97;;;5.50;;
7398;SDS011;3740;50.700;7.184;2022-12-07T12:28:00;11.40;;;6.10;;
7398;SDS011;3740;50.700;7.184;2022-12-07T12:38:51;6.30;;;5.63;;
7398;SDS011;3740;50.700;7.184;2022-12-07T12:44:01;6.37;;;5.60;;
7398;SDS011;3740;50.700;7.184;2022-12-07T12:51:43;10.53;;;6.63;;
7398;SDS011;3740;50.700;7.184;2022-12-07T12:54:26;8.63;;;6.30;;
7398;SDS011;3740;50.700;7.184;2022-12-07T12:57:11;11.67;;;6.73;;
7398;SDS011;3740;50.700;7.184;2022-12-07T13:02:28;8.43;;;6.90;;
7398;SDS011;3740;50.700;7.184;2022-12-07T13:05:16;9.17;;;6.83;;
7398;SDS011;3740;50.700;7.184;2022-12-07T13:15:40;10.50;;;7.10;;
7398;SDS011;3740;50.700;7.184;2022-12-07T13:20:56;9.93;;;6.67;;
7398;SDS011;3740;50.700;7.184;2022-12-07T13:23:26;10.75;;;7.70;;
7398;SDS011;3740;50.700;7.184;2022-12-07T13:28:50;10.27;;;7.23;;
7398;SDS011;3740;50.700;7.184;2022-12-07T13:34:03;11.30;;;7.97;;
7398;SDS011;3740;50.700;7.184;2022-12-07T13:36:49;13.53;;;7.83;;
7398;SDS011;3740;50.700;7.184;2022-12-07T13:39:23;10.87;;;7.63;;
7398;SDS011;3740;50.700;7.184;2022-12-07T13:41:51;15.57;;;7.57;;
7398;SDS011;3740;50.700;7.184;2022-12-07T13:44:18;9.97;;;6.97;;
7398;SDS011;3740;50.700;7.184;2022-12-07T13:52:16;8.40;;;5.90;;
7398;SDS011;3740;50.700;7.184;2022-12-07T13:54:46;11.03;;;8.53;;
7398;SDS011;3740;50.700;7.184;2022-12-07T13:57:21;11.50;;;7.93;;
7398;SDS011;3740;50.700;7.184;2022-12-07T13:59:48;12.50;;;8.90;;
7398;SDS011;3740;50.700;7.184;2022-12-07T14:02:21;11.70;;;8.93;;
7398;SDS011;3740;50.700;7.184;2022-12-07T14:04:50;12.33;;;8.83;;
7398;SDS011;3740;50.700;7.184;2022-12-07T14:07:21;12.07;;;8.77;;
7398;SDS011;3740;50.700;7.184;2022-12-07T14:09:55;9.17;;;8.00;;
7398;SDS011;3740;50.700;7.184;2022-12-07T14:12:23;10.63;;;8.27;;
7398;SDS011;3740;50.700;7.184;2022-12-07T14:14:50;11.10;;;8.50;;
7398;SDS011;3740;50.700;7.184;2022-12-07T14:17:17;11.23;;;8.33;;
7398;SDS011;3740;50.700;7.184;2022-12-07T14:22:19;13.47;;;9.07;;
7398;SDS011;3740;50.700;7.184;2022-12-07T14:27:37;7.33;;;5.00;;
7398;SDS011;3740;50.700;7.184;2022-12-07T14:30:04;8.03;;;5.07;;
7398;SDS011;3740;50.700;7.184;2022-12-07T14:32:31;9.07;;;6.27;;
7398;SDS011;3740;50.700;7.184;2022-12-07T14:37:28;6.83;;;5.10;;
7398;SDS011;3740;50.700;7.184;2022-12-07T14:39:54;7.60;;;5.30;;
7398;SDS011;3740;50.700;7.184;2022-12-07T14:42:20;8.13;;;5.40;;
7398;SDS011;3740;50.700;7.184;2022-12-07T14:44:49;9.00;;;4.93;;
7398;SDS011;3740;50.700;7.184;2022-12-07T14:47:15;5.27;;;4.77;;
7398;SDS011;3740;50.700;7.184;2022-12-07T14:49:40;7.90;;;4.73;;
7398;SDS011;3740;50.700;7.184;2022-12-07T14:52:08;5.83;;;4.40;;
7398;SDS011;3740;50.700;7.184;2022-12-07T14:54:55;6.43;;;5.00;;
7398;SDS011;3740;50.700;7.184;2022-12-07T14:57:20;6.77;;;4.33;;
7398;SDS011;3740;50.700;7.184;2022-12-07T14:59:46;6.93;;;4.90;;
7398;SDS011;3740;50.700;7.184;2022-12-07T15:02:12;7.10;;;4.80;;
7398;SDS011;3740;50.700;7.184;2022-12-07T15:04:39;6.17;;;4.90;;
7398;SDS011;3740;50.700;7.184;2022-12-07T15:07:05;7.37;;;5.97;;
7398;SDS011;3740;50.700;7.184;2022-12-07T15:09:34;8.00;;;5.90;;
7398;SDS011;3740;50.700;7.184;2022-12-07T15:11:59;6.83;;;4.63;;
7398;SDS011;3740;50.700;7.184;2022-12-07T15:14:25;6.10;;;4.33;;
7398;SDS011;3740;50.700;7.184;2022-12-07T15:16:50;5.80;;;4.30;;
7398;SDS011;3740;50.700;7.184;2022-12-07T15:19:20;6.00;;;4.23;;
7398;SDS011;3740;50.700;7.184;2022-12-07T15:21:52;8.20;;;4.00;;
7398;SDS011;3740;50.700;7.184;2022-12-07T15:24:18;5.00;;;4.50;;
7398;SDS011;3740;50.700;7.184;2022-12-07T15:26:45;7.53;;;4.73;;
7398;SDS011;3740;50.700;7.184;2022-12-07T15:29:10;8.10;;;5.40;;
7398;SDS011;3740;50.700;7.184;2022-12-07T15:31:36;7.00;;;5.50;;
7398;SDS011;3740;50.700;7.184;2022-12-07T15:34:03;8.90;;;6.67;;
7398;SDS011;3740;50.700;7.184;2022-12-07T15:36:30;7.77;;;6.40;;
7398;SDS011;3740;50.700;7.184;2022-12-07T15:38:57;7.13;;;5.67;;
7398;SDS011;3740;50.700;7.184;2022-12-07T15:41:23;6.27;;;5.67;;
7398;SDS011;3740;50.700;7.184;2022-12-07T15:43:48;6.80;;;5.40;;
7398;SDS011;3740;50.700;7.184;2022-12-07T15:46:33;8.00;;;5.47;;
7398;SDS011;3740;50.700;7.184;2022-12-07T15:49:01;8.37;;;5.97;;
7398;SDS011;3740;50.700;7.184;2022-12-07T15:51:27;8.10;;;6.70;;
7398;SDS011;3740;50.700;7.184;2022-12-07T15:53:53;8.40;;;6.97;;
7398;SDS011;3740;50.700;7.184;2022-12-07T15:56:19;8.93;;;6.53;;
7398;SDS011;3740;50.700;7.184;2022-12-07T15:58:45;9.47;;;7.10;;
7398;SDS011;3740;50.700;7.184;2022-12-07T16:01:12;10.77;;;6.93;;
7398;SDS011;3740;50.700;7.184;2022-12-07T16:03:39;8.73;;;7.10;;
7398;SDS011;3740;50.700;7.184;2022-12-07T16:06:05;10.00;;;7.63;;
7398;SDS011;3740;50.700;7.184;2022-12-07T16:08:31;9.13;;;6.80;;
7398;SDS011;3740;50.700;7.184;2022-12-07T16:10:57;9.57;;;6.93;;
7398;SDS011;3740;50.700;7.184;2022-12-07T16:13:22;8.07;;;6.40;;
7398;SDS011;3740;50.700;7.184;2022-12-07T16:15:48;10.80;;;6.27;;
7398;SDS011;3740;50.700;7.184;2022-12-07T16:18:14;9.00;;;6.53;;
7398;SDS011;3740;50.700;7.184;2022-12-07T16:20:39;7.77;;;6.30;;
7398;SDS011;3740;50.700;7.184;2022-12-07T16:23:05;9.57;;;6.50;;
7398;SDS011;3740;50.700;7.184;2022-12-07T16:25:32;10.73;;;6.90;;
7398;SDS011;3740;50.700;7.184;2022-12-07T16:27:57;8.53;;;6.80;;
7398;SDS011;3740;50.700;7.184;2022-12-07T16:30:23;8.53;;;6.80;;
7398;SDS011;3740;50.700;7.184;2022-12-07T16:32:49;10.90;;;6.73;;
7398;SDS011;3740;50.700;7.184;2022-12-07T16:35:14;7.67;;;6.87;;
7398;SDS011;3740;50.700;7.184;2022-12-07T16:37:41;7.80;;;6.67;;
7398;SDS011;3740;50.700;7.184;2022-12-07T16:40:07;8.57;;;6.70;;
7398;SDS011;3740;50.700;7.184;2022-12-07T16:42:34;6.87;;;6.23;;
7398;SDS011;3740;50.700;7.184;2022-12-07T16:45:00;7.43;;;6.30;;
7398;SDS011;3740;50.700;7.184;2022-12-07T16:47:27;8.03;;;6.17;;
7398;SDS011;3740;50.700;7.184;2022-12-07T16:49:53;7.30;;;6.60;;
7398;SDS011;3740;50.700;7.184;2022-12-07T16:52:19;7.00;;;6.10;;
7398;SDS011;3740;50.700;7.184;2022-12-07T16:54:45;7.53;;;5.93;;
7398;SDS011;3740;50.700;7.184;2022-12-07T16:57:11;7.13;;;5.87;;
7398;SDS011;3740;50.700;7.184;2022-12-07T16:59:36;8.07;;;6.60;;
7398;SDS011;3740;50.700;7.184;2022-12-07T17:02:02;8.63;;;5.97;;
7398;SDS011;3740;50.700;7.184;2022-12-07T17:04:28;6.73;;;6.03;;
7398;SDS011;3740;50.700;7.184;2022-12-07T17:06:54;10.13;;;7.80;;
7398;SDS011;3740;50.700;7.184;2022-12-07T17:09:19;8.50;;;6.90;;
7398;SDS011;3740;50.700;7.184;2022-12-07T17:11:45;7.00;;;6.30;;
7398;SDS011;3740;50.700;7.184;2022-12-07T17:14:11;10.77;;;7.77;;
7398;SDS011;3740;50.700;7.184;2022-12-07T17:16:55;10.10;;;8.20;;
7398;SDS011;3740;50.700;7.184;2022-12-07T17:19:20;12.43;;;8.77;;